Time;durP1;ratioP1;P1;durP2;ratioP2;P2;SDS_P1;SDS_P2;PMS_P1;PMS_P2;Temp;Humidity;BMP_temperature;BMP_pressure;BME280_temperature;BME280_humidity;BME280_pressure;Samples;Min_cycle;Max_cycle;Signal;HPM_P1;HPM_P2
2022/05/01 00:00:23;;;;;;;21.30;14.70;;;;;;;1.95;94.04;102497.25;2055198;28;43955;-61
2022/05/01 00:01:24;;;;;;;21.15;14.55;;;;;;;1.91;94.48;102494.47;2055219;28;45473;-61
2022/05/01 00:02:26;;;;;;;18.65;13.23;;;;;;;1.87;94.17;102496.97;2055362;28;33192;-65
2022/05/01 00:03:31;;;;;;;20.13;14.50;;;;;;;1.84;93.64;102487.16;2055205;28;43509;-65
2022/05/01 00:04:34;;;;;;;20.95;15.77;;;;;;;1.82;94.21;102487.97;2064228;28;45955;-62
2022/05/01 00:05:36;;;;;;;25.10;16.05;;;;;;;1.79;94.84;102494.00;2064690;28;20047;-62
2022/05/01 00:06:37;;;;;;;23.15;15.93;;;;;;;1.78;94.59;102489.59;2064724;28;42769;-64
2022/05/01 00:07:39;;;;;;;20.17;14.23;;;;;;;1.78;93.95;102488.72;2064126;28;34196;-59
2022/05/01 00:08:42;;;;;;;22.85;16.10;;;;;;;1.76;94.96;102491.28;2064065;28;45801;-60
2022/05/01 00:09:44;;;;;;;26.55;17.65;;;;;;;1.74;94.15;102485.00;2064205;28;45648;-59
2022/05/01 00:10:46;;;;;;;22.60;16.00;;;;;;;1.75;94.78;102480.66;2064497;28;32829;-59
2022/05/01 00:12:09;;;;;;;21.42;15.13;;;;;;;1.76;95.27;102483.34;2064959;28;20086;-66
2022/05/01 00:13:11;;;;;;;24.13;16.63;;;;;;;1.74;94.94;102479.72;2064165;28;44250;-66
2022/05/01 00:14:13;;;;;;;27.63;17.33;;;;;;;1.73;95.05;102483.22;2068889;28;44702;-66
2022/05/01 00:15:17;;;;;;;25.85;17.40;;;;;;;1.71;94.42;102482.28;2066302;28;46027;-66
2022/05/01 00:16:19;;;;;;;26.70;17.23;;;;;;;1.70;95.19;102477.81;2064230;28;35893;-61
2022/05/01 00:17:21;;;;;;;18.92;14.30;;;;;;;1.69;94.52;102483.97;2063491;28;43125;-63
2022/05/01 00:18:22;;;;;;;21.45;15.82;;;;;;;1.67;94.99;102482.97;2067381;28;45719;-62
2022/05/01 00:19:25;;;;;;;25.27;17.42;;;;;;;1.64;95.42;102486.41;2072772;28;20092;-69
2022/05/01 00:20:47;;;;;;;27.52;16.77;;;;;;;1.65;95.67;102482.03;2073636;28;20160;-59
2022/05/01 00:21:49;;;;;;;19.80;15.00;;;;;;;1.64;95.87;102485.53;2072195;28;39888;-69
2022/05/01 00:22:51;;;;;;;24.35;16.13;;;;;;;1.62;95.77;102488.09;2074152;28;20855;-65
2022/05/01 00:23:52;;;;;;;20.70;15.38;;;;;;;1.62;95.20;102479.28;2072225;28;44031;-60
2022/05/01 00:24:54;;;;;;;22.33;15.88;;;;;;;1.61;95.48;102482.75;2072009;28;44279;-62
2022/05/01 00:25:58;;;;;;;24.58;16.58;;;;;;;1.57;95.96;102476.47;2071575;28;43745;-61
2022/05/01 00:27:00;;;;;;;22.58;16.15;;;;;;;1.56;95.26;102473.75;2063743;28;42436;-62
2022/05/01 00:28:02;;;;;;;26.58;16.10;;;;;;;1.56;95.34;102472.00;2055240;28;47595;-63
2022/05/01 00:29:05;;;;;;;20.20;14.88;;;;;;;1.55;95.44;102474.63;2056018;28;45428;-66
2022/05/01 00:30:07;;;;;;;24.55;16.98;;;;;;;1.53;95.70;102466.63;2072248;28;38511;-65
2022/05/01 00:31:09;;;;;;;26.08;16.83;;;;;;;1.52;95.77;102471.00;2063565;28;43514;-62
2022/05/01 00:32:11;;;;;;;22.15;15.45;;;;;;;1.51;95.46;102473.59;2055042;28;46163;-62
2022/05/01 00:37:13;;;;;;;18.58;13.52;;;;;;;1.42;95.14;102463.56;2071991;28;44544;-62
2022/05/01 00:38:15;;;;;;;20.45;14.25;;;;;;;1.38;95.08;102466.91;2063225;28;34250;-65
2022/05/01 00:39:17;;;;;;;19.70;14.48;;;;;;;1.33;94.42;102472.03;2063188;28;44188;-60
2022/05/01 00:40:19;;;;;;;21.98;15.73;;;;;;;1.30;94.43;102476.28;2063341;28;45233;-61
2022/05/01 00:41:21;;;;;;;23.15;16.35;;;;;;;1.23;95.07;102464.56;2071566;28;42896;-65
2022/05/01 00:42:23;;;;;;;22.40;14.25;;;;;;;1.28;94.94;102476.22;2072036;28;42006;-67
2022/05/01 00:43:25;;;;;;;20.17;14.90;;;;;;;1.24;95.55;102470.75;2071703;28;43071;-59
2022/05/01 00:44:28;;;;;;;22.10;14.93;;;;;;;1.23;95.32;102476.88;2072201;28;32123;-65
2022/05/01 00:45:32;;;;;;;19.60;14.25;;;;;;;1.20;95.35;102477.63;2071883;28;43725;-63
2022/05/01 00:46:41;;;;;;;23.55;15.77;;;;;;;1.16;94.86;102467.81;2071946;28;44242;-64
2022/05/01 00:47:43;;;;;;;25.58;17.17;;;;;;;1.13;94.77;102465.97;2071754;28;43441;-69
2022/05/01 00:48:45;;;;;;;23.30;15.43;;;;;;;1.17;95.19;102480.16;2071484;28;38029;-67
2022/05/01 00:49:46;;;;;;;23.65;16.67;;;;;;;1.17;95.97;102473.97;2071623;28;45833;-61
2022/05/01 00:50:52;;;;;;;24.20;16.27;;;;;;;1.18;96.25;102473.16;2071926;28;45622;-60
2022/05/01 00:51:58;;;;;;;24.40;16.08;;;;;;;1.17;95.48;102480.16;2071857;28;44952;-61
2022/05/01 00:53:01;;;;;;;24.77;17.45;;;;;;;1.17;95.92;102473.97;2055456;28;42180;-61
2022/05/01 00:54:07;;;;;;;22.95;16.40;;;;;;;1.20;95.35;102482.00;2048474;28;43164;-59
2022/05/01 00:55:09;;;;;;;24.65;17.00;;;;;;;1.16;96.20;102469.56;2056098;28;43983;-68
2022/05/01 00:56:12;;;;;;;29.88;17.73;;;;;;;1.19;95.98;102474.97;2063322;28;44767;-60
2022/05/01 00:57:15;;;;;;;26.08;15.95;;;;;;;1.17;96.06;102479.25;2064391;28;20046;-66
2022/05/01 00:58:16;;;;;;;21.02;15.00;;;;;;;1.17;95.52;102471.31;2071810;28;45691;-66
2022/05/01 00:59:19;;;;;;;21.85;15.35;;;;;;;1.11;95.64;102470.28;2071959;28;45520;-59
2022/05/01 01:00:21;;;;;;;20.83;14.88;;;;;;;1.07;95.74;102472.72;2062610;28;42390;-60
2022/05/01 01:01:23;;;;;;;21.88;15.45;;;;;;;1.00;95.13;102466.28;2062454;28;38054;-59
2022/05/01 01:02:25;;;;;;;29.60;17.85;;;;;;;0.97;95.47;102468.81;2063042;28;44083;-60
2022/05/01 01:03:26;;;;;;;27.52;18.60;;;;;;;0.95;94.74;102466.09;2062830;28;39983;-66
2022/05/01 01:04:28;;;;;;;28.02;17.27;;;;;;;0.94;95.71;102468.69;2055667;28;36937;-59
2022/05/01 01:05:30;;;;;;;24.25;16.23;;;;;;;0.95;95.88;102467.81;2062918;28;46066;-61
2022/05/01 01:06:31;;;;;;;23.30;15.90;;;;;;;0.95;95.25;102465.19;2063081;28;44388;-66
2022/05/01 01:07:34;;;;;;;24.58;16.63;;;;;;;0.94;95.85;102460.75;2071971;28;45542;-59
2022/05/01 01:08:36;;;;;;;27.98;17.60;;;;;;;0.94;96.28;102466.03;2071678;28;45703;-63
2022/05/01 01:09:38;;;;;;;27.52;17.55;;;;;;;0.91;96.37;102460.63;2072698;28;20039;-65
2022/05/01 01:10:40;;;;;;;28.58;17.33;;;;;;;0.90;96.07;102469.41;2071903;28;44459;-59
2022/05/01 01:11:43;;;;;;;22.10;16.30;;;;;;;0.87;96.01;102459.59;2063445;28;31029;-64
2022/05/01 01:12:56;;;;;;;27.88;17.63;;;;;;;0.87;96.31;102463.97;2063586;28;44024;-60
2022/05/01 01:14:03;;;;;;;23.38;15.93;;;;;;;0.84;95.86;102459.47;2072007;28;45840;-65
2022/05/01 01:15:09;;;;;;;25.67;17.13;;;;;;;0.83;96.39;102459.44;2063344;28;44318;-59
2022/05/01 01:16:11;;;;;;;27.33;17.70;;;;;;;0.82;96.47;102465.53;2064314;28;44014;-67
2022/05/01 01:17:13;;;;;;;28.65;18.75;;;;;;;0.79;96.24;102468.94;2071894;28;46206;-66
2022/05/01 01:18:14;;;;;;;21.67;15.95;;;;;;;0.80;95.99;102462.81;2071228;28;45156;-67
2022/05/01 01:19:16;;;;;;;30.48;19.27;;;;;;;0.76;96.31;102467.06;2071743;28;46385;-66
2022/05/01 01:20:28;;;;;;;32.20;20.65;;;;;;;0.77;96.26;102467.97;2071438;28;44152;-66
2022/05/01 01:21:29;;;;;;;26.42;16.95;;;;;;;0.76;95.95;102469.69;2071340;28;45441;-66
2022/05/01 01:22:31;;;;;;;29.05;18.23;;;;;;;0.75;95.92;102467.91;2071568;28;40206;-66
2022/05/01 01:23:33;;;;;;;30.88;20.02;;;;;;;0.75;95.95;102465.28;2063123;28;43920;-66
2022/05/01 01:24:40;;;;;;;34.33;21.90;;;;;;;0.74;96.72;102468.75;2062833;28;44931;-66
2022/05/01 01:25:42;;;;;;;31.38;20.80;;;;;;;0.73;95.94;102466.03;2063185;28;45047;-66
2022/05/01 01:26:43;;;;;;;29.15;18.17;;;;;;;0.74;96.22;102474.00;2063263;28;45463;-67
2022/05/01 01:27:47;;;;;;;27.52;18.17;;;;;;;0.75;96.73;102472.28;2071317;28;44401;-66
2022/05/01 01:28:50;;;;;;;30.50;20.65;;;;;;;0.76;96.32;102471.44;2071246;28;42753;-67
2022/05/01 01:32:39;;;;;;;28.45;18.35;;;;;;;0.76;97.09;102477.59;2055250;28;20047;-66
2022/05/01 01:33:43;;;;;;;22.13;16.48;;;;;;;0.78;96.90;102474.16;2058326;28;46156;-67
2022/05/01 01:34:48;;;;;;;31.67;21.08;;;;;;;0.78;97.07;102474.16;2063144;28;45229;-66
2022/05/01 01:35:51;;;;;;;29.60;19.45;;;;;;;0.80;96.82;102478.63;2062888;28;44222;-65
2022/05/01 01:36:53;;;;;;;29.75;19.90;;;;;;;0.82;97.17;102487.50;2063422;28;45847;-66
2022/05/01 01:37:56;;;;;;;33.25;21.98;;;;;;;0.84;96.85;102482.31;2071945;28;43926;-65
2022/05/01 01:38:59;;;;;;;34.58;21.65;;;;;;;0.86;97.22;102476.28;2071493;28;46069;-65
2022/05/01 01:40:01;;;;;;;32.35;20.77;;;;;;;0.89;97.54;102478.13;2071526;28;43102;-65
2022/05/01 01:41:08;;;;;;;36.72;22.83;;;;;;;0.92;97.29;102479.16;2062467;28;45356;-66
2022/05/01 01:42:12;;;;;;;29.88;19.67;;;;;;;0.97;98.11;102482.00;2062329;28;45888;-65
2022/05/01 01:43:19;;;;;;;35.03;22.77;;;;;;;1.01;97.82;102478.63;2063999;28;45237;-66
2022/05/01 01:44:24;;;;;;;32.20;21.02;;;;;;;1.07;97.99;102475.34;2062339;28;46368;-67
2022/05/01 01:45:28;;;;;;;38.65;23.27;;;;;;;1.09;98.09;102485.09;2063929;28;43528;-66
2022/05/01 01:46:32;;;;;;;34.05;21.92;;;;;;;1.12;98.21;102477.31;2062462;28;45378;-66
2022/05/01 01:47:34;;;;;;;42.50;25.60;;;;;;;1.20;97.82;102479.38;2063610;28;39042;-66
2022/05/01 01:48:36;;;;;;;41.13;25.63;;;;;;;1.23;98.02;102476.88;2070568;28;38201;-66
2022/05/01 01:49:38;;;;;;;41.42;26.42;;;;;;;1.31;97.50;102480.69;2071446;28;44242;-66
2022/05/01 01:50:41;;;;;;;48.63;29.67;;;;;;;1.51;98.54;102479.75;2071479;28;43139;-66
2022/05/01 01:51:43;;;;;;;46.78;27.40;;;;;;;1.49;98.43;102472.59;2062145;28;45679;-67
2022/05/01 01:52:46;;;;;;;41.47;26.38;;;;;;;1.48;98.66;102471.72;2063168;28;45725;-66
2022/05/01 01:53:48;;;;;;;45.70;26.30;;;;;;;1.49;98.85;102476.16;2062643;28;45997;-66
2022/05/01 01:54:51;;;;;;;38.90;25.20;;;;;;;1.48;98.92;102482.28;2062904;28;44026;-66
2022/05/01 01:55:53;;;;;;;41.85;25.98;;;;;;;1.50;98.14;102480.59;2071208;28;44731;-66
2022/05/01 01:56:55;;;;;;;39.72;24.73;;;;;;;1.51;97.96;102482.41;2062162;28;44465;-66
2022/05/01 01:57:57;;;;;;;39.63;24.75;;;;;;;1.50;98.18;102477.94;2062363;28;43755;-65
2022/05/01 01:58:58;;;;;;;35.20;23.27;;;;;;;1.51;97.50;102477.13;2071718;28;45421;-66
2022/05/01 02:00:00;;;;;;;35.97;23.25;;;;;;;1.52;97.80;102478.00;2071356;28;46496;-65
2022/05/01 02:01:04;;;;;;;35.33;24.17;;;;;;;1.56;98.09;102481.69;2071767;28;45008;-66
2022/05/01 02:02:09;;;;;;;34.53;22.00;;;;;;;1.56;98.34;102477.28;2070947;28;37805;-66
2022/05/01 02:03:11;;;;;;;41.50;25.33;;;;;;;1.57;98.27;102478.22;2071435;28;42537;-66
2022/05/01 02:04:13;;;;;;;29.27;19.88;;;;;;;1.59;97.79;102484.44;2071671;28;43226;-66
2022/05/01 02:05:17;;;;;;;29.40;19.67;;;;;;;1.60;97.67;102486.22;2071370;28;45486;-66
2022/05/01 02:06:21;;;;;;;43.80;26.23;;;;;;;1.68;98.16;102479.50;2070958;28;45757;-66
2022/05/01 02:07:25;;;;;;;37.97;23.45;;;;;;;1.66;97.76;102475.91;2071953;28;20034;-65
2022/05/01 02:08:27;;;;;;;60.15;25.52;;;;;;;1.68;97.74;102476.88;2070829;28;45240;-66
2022/05/01 02:09:30;;;;;;;34.17;22.02;;;;;;;1.70;98.22;102483.09;2070739;28;43005;-66
2022/05/01 02:10:33;;;;;;;36.97;23.25;;;;;;;1.71;98.26;102479.63;2071769;28;32579;-66
2022/05/01 02:11:36;;;;;;;36.33;23.50;;;;;;;1.74;97.79;102474.44;2071712;28;21001;-66
2022/05/01 02:12:38;;;;;;;43.53;26.10;;;;;;;1.77;97.81;102481.59;2062106;28;44271;-66
2022/05/01 02:13:39;;;;;;;37.05;23.33;;;;;;;1.84;97.61;102476.59;2063121;28;45342;-66
2022/05/01 02:14:41;;;;;;;44.92;26.77;;;;;;;1.86;98.13;102471.38;2071134;28;44475;-65
2022/05/01 02:15:44;;;;;;;37.88;23.15;;;;;;;1.88;98.36;102475.91;2071160;28;45577;-66
2022/05/01 02:16:48;;;;;;;39.25;23.20;;;;;;;1.90;97.88;102476.84;2062495;28;44711;-66
2022/05/01 02:17:49;;;;;;;32.70;21.80;;;;;;;1.94;98.21;102469.94;2063268;28;43248;-66
2022/05/01 02:18:51;;;;;;;42.10;25.48;;;;;;;2.01;97.92;102473.69;2071082;28;44859;-66
2022/05/01 02:19:53;;;;;;;38.00;22.40;;;;;;;2.00;98.82;102464.88;2071274;28;44704;-65
2022/05/01 02:22:21;;;;;;;45.88;24.80;;;;;;;2.05;97.51;102471.22;2065388;28;46180;-66
2022/05/01 02:23:26;;;;;;;31.42;20.90;;;;;;;2.05;98.08;102468.59;2072663;28;20993;-65
2022/05/01 02:24:30;;;;;;;37.38;23.25;;;;;;;2.07;97.24;102469.53;2062217;28;45929;-66
2022/05/01 02:25:32;;;;;;;38.70;23.98;;;;;;;2.09;97.42;102472.25;2063439;28;45207;-65
2022/05/01 02:26:35;;;;;;;36.08;21.75;;;;;;;2.14;98.13;102477.72;2070976;28;45539;-65
2022/05/01 02:27:38;;;;;;;40.97;23.00;;;;;;;2.19;97.75;102470.81;2071178;28;45551;-66
2022/05/01 02:28:39;;;;;;;33.72;21.92;;;;;;;2.19;97.81;102474.38;2071297;28;43126;-66
2022/05/01 02:29:42;;;;;;;31.55;20.38;;;;;;;2.21;97.22;102463.88;2071567;28;35817;-66
2022/05/01 02:30:44;;;;;;;35.15;22.10;;;;;;;2.25;98.02;102471.06;2071230;28;45022;-65
2022/05/01 02:31:46;;;;;;;43.67;24.02;;;;;;;2.26;97.22;102470.19;2062562;28;45709;-65
2022/05/01 02:32:47;;;;;;;43.40;27.35;;;;;;;2.32;98.28;102470.44;2062945;28;44233;-66
2022/05/01 02:33:49;;;;;;;33.88;22.27;;;;;;;2.30;98.24;102469.50;2070953;28;45292;-66
2022/05/01 02:34:50;;;;;;;43.03;26.55;;;;;;;2.36;97.34;102463.50;2062160;28;43421;-66
2022/05/01 02:35:52;;;;;;;49.13;28.02;;;;;;;2.42;97.99;102461.06;2063869;28;20086;-66
2022/05/01 02:36:55;;;;;;;51.83;28.58;;;;;;;2.46;98.01;102463.91;2062433;28;46309;-66
2022/05/01 02:37:57;;;;;;;46.65;26.73;;;;;;;2.48;97.96;102461.31;2062042;28;46352;-65
2022/05/01 02:39:01;;;;;;;48.42;28.30;;;;;;;2.57;98.81;102452.81;2063695;28;20093;-66
2022/05/01 02:40:04;;;;;;;42.47;26.02;;;;;;;2.55;97.86;102463.31;2070645;28;46943;-66
2022/05/01 02:41:06;;;;;;;41.30;25.80;;;;;;;2.54;98.36;102464.16;2071256;28;45670;-66
2022/05/01 02:42:08;;;;;;;35.30;22.42;;;;;;;2.56;97.75;102457.16;2071020;28;45172;-66
2022/05/01 02:43:09;;;;;;;28.20;19.55;;;;;;;2.53;98.10;102459.72;2071743;28;20915;-66
2022/05/01 02:44:11;;;;;;;28.75;19.92;;;;;;;2.51;97.24;102465.78;2071093;28;44557;-66
2022/05/01 02:45:13;;;;;;;32.75;20.75;;;;;;;2.48;97.10;102453.38;2071609;28;44273;-66
2022/05/01 02:46:15;;;;;;;38.45;23.85;;;;;;;2.49;97.30;102463.09;2070574;28;45165;-66
2022/05/01 02:47:17;;;;;;;31.80;20.33;;;;;;;2.51;97.72;102452.56;2070979;28;20548;-66
2022/05/01 02:48:19;;;;;;;42.75;25.15;;;;;;;2.51;97.41;102450.81;2070404;28;41735;-66
2022/05/01 02:49:22;;;;;;;35.60;22.67;;;;;;;2.48;97.91;102448.97;2070681;28;45343;-66
2022/05/01 02:50:24;;;;;;;34.88;22.85;;;;;;;2.52;97.32;102452.63;2070971;28;45423;-65
2022/05/01 02:51:26;;;;;;;36.08;24.45;;;;;;;2.54;98.00;102453.56;2070705;28;46346;-66
2022/05/01 02:52:27;;;;;;;44.88;26.27;;;;;;;2.57;98.03;102455.44;2071476;28;43160;-65
2022/05/01 02:53:29;;;;;;;38.95;24.88;;;;;;;2.58;98.03;102446.66;2071319;28;45342;-66
2022/05/01 02:54:31;;;;;;;32.42;21.02;;;;;;;2.60;97.72;102444.94;2071414;28;39007;-66
2022/05/01 02:55:32;;;;;;;31.60;20.50;;;;;;;2.60;98.15;102456.44;2071219;28;44626;-67
2022/05/01 02:56:34;;;;;;;34.60;23.05;;;;;;;2.59;97.79;102445.81;2071360;28;36605;-66
2022/05/01 02:57:38;;;;;;;36.17;24.45;;;;;;;2.60;97.57;102443.22;2071645;28;20124;-67
2022/05/01 02:58:41;;;;;;;38.40;22.45;;;;;;;2.64;98.02;102444.22;2071965;28;20793;-67
2022/05/01 02:59:42;;;;;;;37.08;23.65;;;;;;;2.65;97.71;102448.66;2071483;28;34692;-66
2022/05/01 03:00:45;;;;;;;39.17;22.52;;;;;;;2.66;98.23;102451.34;2062421;28;43259;-67
2022/05/01 03:01:47;;;;;;;32.88;21.65;;;;;;;2.67;97.62;102447.88;2063307;28;20043;-66
2022/05/01 03:02:49;;;;;;;35.45;21.92;;;;;;;2.67;97.82;102447.88;2071643;28;32704;-67
2022/05/01 03:03:51;;;;;;;33.47;22.23;;;;;;;2.72;97.97;102440.09;2070443;28;45612;-67
2022/05/01 03:04:53;;;;;;;31.75;20.20;;;;;;;2.72;97.63;102449.78;2070965;28;45763;-66
2022/05/01 03:05:57;;;;;;;26.90;19.15;;;;;;;2.74;97.32;102448.06;2070519;28;45024;-67
2022/05/01 03:06:59;;;;;;;30.45;19.65;;;;;;;2.73;97.68;102447.19;2070712;28;44972;-67
2022/05/01 03:08:01;;;;;;;30.55;20.45;;;;;;;2.73;97.20;102441.91;2071274;28;35417;-67
2022/05/01 03:09:03;;;;;;;26.13;18.77;;;;;;;2.72;97.74;102444.47;2071608;28;29862;-67
2022/05/01 03:10:07;;;;;;;26.52;18.70;;;;;;;2.74;97.77;102442.78;2070654;28;46743;-67
2022/05/01 03:11:08;;;;;;;36.15;22.00;;;;;;;2.76;97.74;102439.31;2072021;28;20961;-67
2022/05/01 03:12:10;;;;;;;32.08;20.38;;;;;;;2.78;97.70;102439.38;2070859;28;45167;-67
2022/05/01 03:13:12;;;;;;;31.65;21.73;;;;;;;2.82;97.99;102439.56;2070726;28;45830;-67
2022/05/01 03:14:13;;;;;;;30.13;18.55;;;;;;;2.82;97.57;102436.03;2071250;28;43770;-67
2022/05/01 03:15:15;;;;;;;31.05;21.42;;;;;;;2.83;98.03;102437.78;2070713;28;45266;-67
2022/05/01 03:16:17;;;;;;;37.50;21.83;;;;;;;2.84;97.73;102440.50;2071202;28;34663;-67
2022/05/01 03:17:19;;;;;;;35.92;22.08;;;;;;;2.86;97.34;102440.56;2071140;28;45438;-67
2022/05/01 03:22:26;;;;;;;34.78;21.00;;;;;;;2.90;97.24;102426.56;2070247;28;44561;-66
2022/05/01 03:23:28;;;;;;;30.63;20.05;;;;;;;2.93;97.42;102429.31;2069667;28;45095;-66
2022/05/01 03:24:30;;;;;;;28.15;20.00;;;;;;;2.93;97.66;102437.25;2070398;28;45490;-66
2022/05/01 03:25:31;;;;;;;27.00;19.33;;;;;;;2.97;97.59;102432.97;2070521;28;45110;-67
2022/05/01 03:26:33;;;;;;;29.33;19.40;;;;;;;2.97;97.71;102438.25;2071170;28;46013;-67
2022/05/01 03:27:35;;;;;;;26.85;18.85;;;;;;;2.99;97.15;102444.50;2070704;28;43375;-67
2022/05/01 03:28:36;;;;;;;31.10;19.45;;;;;;;2.99;97.27;102433.91;2070419;28;43945;-67
2022/05/01 03:29:38;;;;;;;30.55;20.83;;;;;;;3.00;97.38;102438.38;2070498;28;36111;-67
2022/05/01 03:30:40;;;;;;;25.83;18.15;;;;;;;3.02;97.09;102434.91;2070821;28;45602;-67
2022/05/01 03:31:42;;;;;;;30.15;20.60;;;;;;;3.01;97.14;102438.38;2070297;28;46174;-67
2022/05/01 03:32:45;;;;;;;39.15;25.10;;;;;;;3.06;97.92;102436.78;2062159;28;44964;-67
2022/05/01 03:33:47;;;;;;;33.10;20.25;;;;;;;3.04;97.63;102435.84;2054209;28;43163;-66
2022/05/01 03:34:48;;;;;;;30.50;20.10;;;;;;;3.06;97.54;102435.91;2062256;28;44773;-67
2022/05/01 03:35:52;;;;;;;35.40;21.45;;;;;;;3.07;97.17;102432.41;2071463;28;20741;-66
2022/05/01 03:36:55;;;;;;;37.22;23.65;;;;;;;3.12;97.65;102429.91;2071043;28;42938;-66
2022/05/01 03:37:58;;;;;;;42.13;25.30;;;;;;;3.25;98.11;102432.09;2062869;28;20047;-67
2022/05/01 03:39:00;;;;;;;49.58;27.27;;;;;;;3.37;98.78;102427.16;2061893;28;45569;-67
2022/05/01 03:40:03;;;;;;;41.97;26.38;;;;;;;3.44;98.98;102428.25;2061918;28;45259;-67
2022/05/01 03:41:09;;;;;;;38.58;24.00;;;;;;;3.37;98.60;102428.91;2071246;28;39172;-66
2022/05/01 03:42:11;;;;;;;38.40;23.35;;;;;;;3.34;98.51;102432.38;2070780;28;43099;-67
2022/05/01 03:43:18;;;;;;;27.60;18.92;;;;;;;3.33;98.11;102435.88;2071035;28;45591;-66
2022/05/01 03:44:19;;;;;;;39.22;23.88;;;;;;;3.33;97.80;102429.69;2070651;28;44629;-66
2022/05/01 03:45:21;;;;;;;32.88;20.92;;;;;;;3.35;97.84;102431.50;2071093;28;46269;-66
2022/05/01 03:46:23;;;;;;;32.80;20.08;;;;;;;3.34;97.88;102436.75;2070448;28;44713;-67
2022/05/01 03:47:25;;;;;;;28.83;19.27;;;;;;;3.36;97.58;102437.72;2071465;28;33854;-67
2022/05/01 03:48:27;;;;;;;31.55;20.50;;;;;;;3.36;97.73;102435.97;2069728;28;44670;-66
2022/05/01 03:49:29;;;;;;;34.10;22.23;;;;;;;3.37;97.62;102432.44;2071268;28;35980;-66
2022/05/01 03:50:30;;;;;;;39.42;23.40;;;;;;;3.44;97.87;102428.25;2070725;28;44919;-66
2022/05/01 03:51:33;;;;;;;36.05;22.60;;;;;;;3.44;97.79;102426.50;2070494;28;43148;-66
2022/05/01 03:52:34;;;;;;;40.13;22.95;;;;;;;3.51;98.02;102427.59;2071078;28;44024;-67
2022/05/01 03:53:37;;;;;;;39.50;26.00;;;;;;;3.55;98.10;102426.84;2071145;28;45169;-66
2022/05/01 03:54:39;;;;;;;36.72;23.73;;;;;;;3.53;97.79;102425.00;2061600;28;44535;-67
2022/05/01 03:55:40;;;;;;;31.83;20.15;;;;;;;3.52;97.72;102425.88;2062845;28;32412;-66
2022/05/01 03:56:43;;;;;;;28.80;20.00;;;;;;;3.51;97.48;102421.41;2070189;28;45986;-67
2022/05/01 03:57:45;;;;;;;23.80;16.48;;;;;;;3.50;97.32;102427.53;2070756;28;44107;-66
2022/05/01 03:58:48;;;;;;;32.47;19.67;;;;;;;3.49;97.18;102425.75;2070553;28;46210;-67
2022/05/01 03:59:53;;;;;;;22.20;15.65;;;;;;;3.48;97.15;102418.66;2071002;28;44445;-67
2022/05/01 04:00:54;;;;;;;29.95;17.65;;;;;;;3.48;97.22;102418.66;2070470;28;45253;-66
2022/05/01 04:01:58;;;;;;;33.10;20.50;;;;;;;3.51;96.74;102424.06;2072152;28;20248;-66
2022/05/01 04:03:02;;;;;;;33.60;23.67;;;;;;;3.61;97.54;102426.13;2070485;28;44031;-67
2022/05/01 04:04:04;;;;;;;33.40;21.75;;;;;;;3.64;98.11;102420.91;2070975;28;44420;-67
2022/05/01 04:05:07;;;;;;;30.10;19.83;;;;;;;3.63;97.80;102424.41;2070199;28;45042;-66
2022/05/01 04:06:08;;;;;;;27.52;18.15;;;;;;;3.63;97.51;102425.31;2070874;28;45454;-67
2022/05/01 04:07:10;;;;;;;31.75;19.02;;;;;;;3.65;97.31;102432.41;2070286;28;46163;-67
2022/05/01 04:08:12;;;;;;;27.60;19.23;;;;;;;3.65;97.17;102430.66;2071270;28;43893;-67
2022/05/01 04:09:14;;;;;;;23.42;17.45;;;;;;;3.65;96.92;102427.13;2070428;28;46396;-67
2022/05/01 04:10:15;;;;;;;27.00;18.40;;;;;;;3.65;97.29;102428.00;2071124;28;29736;-67
2022/05/01 04:11:17;;;;;;;26.15;18.48;;;;;;;3.65;96.70;102428.00;2070427;28;46291;-67
2022/05/01 04:12:22;;;;;;;24.13;18.70;;;;;;;3.67;96.88;102436.91;2071089;28;45749;-67
2022/05/01 04:13:25;;;;;;;25.55;19.05;;;;;;;3.69;96.61;102424.59;2070471;28;44163;-66
2022/05/01 04:14:28;;;;;;;31.10;20.98;;;;;;;3.72;96.76;102429.09;2070691;28;48201;-66
2022/05/01 04:15:30;;;;;;;31.95;21.15;;;;;;;3.73;97.28;102437.09;2071053;28;43113;-67
2022/05/01 04:16:37;;;;;;;21.92;16.90;;;;;;;3.75;97.11;102435.38;2071705;28;21144;-67
2022/05/01 04:17:40;;;;;;;25.77;17.20;;;;;;;3.76;96.74;102437.16;2070278;28;46060;-67
2022/05/01 04:18:42;;;;;;;20.70;15.00;;;;;;;3.77;96.67;102441.63;2070044;28;43516;-67
2022/05/01 04:19:44;;;;;;;29.02;20.27;;;;;;;3.80;96.90;102436.41;2070633;28;44833;-65
2022/05/01 04:20:46;;;;;;;24.15;16.33;;;;;;;3.80;96.58;102439.06;2070406;28;44580;-67
2022/05/01 04:21:48;;;;;;;22.40;15.93;;;;;;;3.81;96.58;102435.53;2070353;28;30962;-67
2022/05/01 04:22:50;;;;;;;23.15;16.00;;;;;;;3.83;96.40;102436.47;2070371;28;46464;-65
2022/05/01 04:23:51;;;;;;;24.63;16.70;;;;;;;3.85;96.72;102433.88;2070102;28;44798;-67
2022/05/01 04:24:54;;;;;;;26.50;18.58;;;;;;;3.87;96.58;102437.47;2070478;28;44313;-67
2022/05/01 04:25:55;;;;;;;24.08;18.30;;;;;;;3.90;96.68;102436.69;2070384;28;45905;-67
2022/05/01 04:26:57;;;;;;;29.05;19.05;;;;;;;3.91;96.28;102434.06;2070547;28;45974;-67
2022/05/01 04:28:04;;;;;;;26.98;19.40;;;;;;;3.94;96.67;102431.50;2070366;28;46343;-66
2022/05/01 04:30:27;;;;;;;25.73;18.15;;;;;;;4.03;96.40;102429.97;2064819;28;45612;-67
2022/05/01 04:31:29;;;;;;;27.48;17.55;;;;;;;4.04;96.16;102437.97;2070796;28;46033;-67
2022/05/01 04:32:31;;;;;;;26.13;17.48;;;;;;;4.06;96.30;102430.94;2070422;28;44033;-67
2022/05/01 04:33:32;;;;;;;19.83;15.07;;;;;;;4.08;95.93;102437.19;2070068;28;46497;-67
2022/05/01 04:34:34;;;;;;;26.13;17.65;;;;;;;4.11;96.49;102431.06;2070930;28;31338;-67
2022/05/01 04:35:48;;;;;;;24.90;18.17;;;;;;;4.13;95.98;102435.56;2062662;28;45164;-67
2022/05/01 04:36:50;;;;;;;21.33;14.95;;;;;;;4.16;96.50;102434.75;2065239;28;44452;-67
2022/05/01 04:37:59;;;;;;;24.15;17.08;;;;;;;4.17;95.85;102434.78;2072197;28;42789;-65
2022/05/01 04:39:00;;;;;;;22.83;16.52;;;;;;;4.19;96.04;102441.03;2071678;28;44260;-67
2022/05/01 04:40:03;;;;;;;25.08;16.83;;;;;;;4.21;96.15;102439.31;2072526;28;33755;-67
2022/05/01 04:41:04;;;;;;;25.85;18.80;;;;;;;4.24;95.51;102446.47;2072287;28;44565;-67
2022/05/01 04:42:07;;;;;;;21.85;15.27;;;;;;;4.27;95.54;102440.34;2062572;28;46110;-68
2022/05/01 04:43:17;;;;;;;22.15;16.75;;;;;;;4.29;96.18;102443.91;2063649;28;44595;-67
2022/05/01 04:44:21;;;;;;;20.88;16.30;;;;;;;4.31;95.88;102443.13;2071823;28;44291;-67
2022/05/01 04:45:23;;;;;;;26.75;18.38;;;;;;;4.35;96.15;102449.41;2072607;28;33636;-68
2022/05/01 04:46:26;;;;;;;23.67;16.75;;;;;;;4.37;95.45;102447.69;2071644;28;43497;-67
2022/05/01 04:47:28;;;;;;;26.20;18.55;;;;;;;4.39;95.99;102451.28;2072308;28;45155;-67
2022/05/01 04:48:30;;;;;;;24.70;16.00;;;;;;;4.41;95.48;102444.25;2071591;28;24141;-67
2022/05/01 04:49:31;;;;;;;22.35;16.33;;;;;;;4.45;95.28;102445.25;2071820;28;43927;-67
2022/05/01 04:50:34;;;;;;;25.02;16.73;;;;;;;4.46;95.44;102450.59;2071499;28;44724;-67
2022/05/01 04:51:35;;;;;;;26.63;18.42;;;;;;;4.49;94.74;102455.97;2072412;28;33891;-67
2022/05/01 04:52:38;;;;;;;26.98;18.42;;;;;;;4.52;94.73;102445.47;2071569;28;44882;-67
2022/05/01 04:53:40;;;;;;;19.58;14.48;;;;;;;4.54;95.06;102449.06;2071764;28;44391;-68
2022/05/01 04:54:41;;;;;;;27.42;18.23;;;;;;;4.56;95.73;102449.97;2071679;28;44078;-67
2022/05/01 04:55:47;;;;;;;25.40;17.88;;;;;;;4.61;95.74;102457.16;2071857;28;44706;-67
2022/05/01 04:57:09;;;;;;;26.05;16.80;;;;;;;4.63;94.59;102450.13;2071662;28;38583;-67
2022/05/01 04:58:15;;;;;;;19.80;15.40;;;;;;;4.67;94.97;102457.34;2071682;28;44921;-67
2022/05/01 04:59:16;;;;;;;20.05;15.02;;;;;;;4.71;94.47;102456.53;2071368;28;43400;-67
2022/05/01 05:00:19;;;;;;;24.92;17.77;;;;;;;4.72;94.61;102463.63;2073101;28;20049;-67
2022/05/01 05:01:21;;;;;;;19.70;15.23;;;;;;;4.74;95.29;102464.59;2071589;28;45368;-67
2022/05/01 05:02:23;;;;;;;21.48;14.48;;;;;;;4.78;93.98;102461.16;2071998;28;43689;-68